sensor_id;sensor_type;location;lat;lon;timestamp;P1;durP1;ratioP1;P2;durP2;ratioP2
52342;SDS011;38277;51.972;4.624;2022-12-07T00:00:27;6.5;;;1.8;;
52342;SDS011;38277;51.972;4.624;2022-12-07T00:05:09;4.6;;;1.8;;
52342;SDS011;38277;51.972;4.624;2022-12-07T00:09:18;4.8;;;1.8;;
52342;SDS011;38277;51.972;4.624;2022-12-07T00:14:12;3.7;;;1.8;;
52342;SDS011;38277;51.972;4.624;2022-12-07T00:32:14;9.7;;;2.1;;
52342;SDS011;38277;51.972;4.624;2022-12-07T00:36:30;3.6;;;1.5;;
52342;SDS011;38277;51.972;4.624;2022-12-07T00:41:02;3.6;;;1.6;;
52342;SDS011;38277;51.972;4.624;2022-12-07T00:45:12;2.8;;;1.5;;
52342;SDS011;38277;51.972;4.624;2022-12-07T00:58:58;4.5;;;1.8;;
52342;SDS011;38277;51.972;4.624;2022-12-07T01:03:15;4.8;;;1.5;;
52342;SDS011;38277;51.972;4.624;2022-12-07T01:07:48;3.4;;;1.5;;
52342;SDS011;38277;51.972;4.624;2022-12-07T01:12:34;2.2;;;1.3;;
52342;SDS011;38277;51.972;4.624;2022-12-07T01:16:58;11.5;;;2.3;;
52342;SDS011;38277;51.972;4.624;2022-12-07T01:30:22;3.1;;;1.6;;
52342;SDS011;38277;51.972;4.624;2022-12-07T01:34:57;2.1;;;1.4;;
52342;SDS011;38277;51.972;4.624;2022-12-07T01:53:12;8.6;;;3.1;;
52342;SDS011;38277;51.972;4.624;2022-12-07T01:57:28;5.7;;;1.5;;
52342;SDS011;38277;51.972;4.624;2022-12-07T02:01:56;4.1;;;1.2;;
52342;SDS011;38277;51.972;4.624;2022-12-07T02:06:13;3.9;;;1.1;;
52342;SDS011;38277;51.972;4.624;2022-12-07T02:11:00;4.4;;;1.4;;
52342;SDS011;38277;51.972;4.624;2022-12-07T02:15:29;4.1;;;1.3;;
52342;SDS011;38277;51.972;4.624;2022-12-07T02:20:25;4.7;;;1.4;;
52342;SDS011;38277;51.972;4.624;2022-12-07T02:26:38;2.2;;;1.1;;
52342;SDS011;38277;51.972;4.624;2022-12-07T02:29:54;3.1;;;1.5;;
52342;SDS011;38277;51.972;4.624;2022-12-07T02:33:44;2.1;;;1.1;;
52342;SDS011;38277;51.972;4.624;2022-12-07T02:37:58;3.3;;;1.0;;
52342;SDS011;38277;51.972;4.624;2022-12-07T02:51:29;1.0;;;0.7;;
52342;SDS011;38277;51.972;4.624;2022-12-07T02:55:46;1.5;;;1.0;;
52342;SDS011;38277;51.972;4.624;2022-12-07T03:00:37;4.7;;;1.3;;
52342;SDS011;38277;51.972;4.624;2022-12-07T03:10:03;5.0;;;1.3;;
52342;SDS011;38277;51.972;4.624;2022-12-07T03:13:54;6.1;;;1.3;;
52342;SDS011;38277;51.972;4.624;2022-12-07T03:18:16;3.9;;;1.3;;
52342;SDS011;38277;51.972;4.624;2022-12-07T03:27:54;5.9;;;1.4;;
52342;SDS011;38277;51.972;4.624;2022-12-07T03:32:04;3.4;;;1.1;;
52342;SDS011;38277;51.972;4.624;2022-12-07T03:36:35;3.4;;;1.8;;
52342;SDS011;38277;51.972;4.624;2022-12-07T03:54:30;3.3;;;1.2;;
52342;SDS011;38277;51.972;4.624;2022-12-07T03:58:47;2.8;;;1.0;;
52342;SDS011;38277;51.972;4.624;2022-12-07T04:12:39;3.8;;;2.1;;
52342;SDS011;38277;51.972;4.624;2022-12-07T04:17:05;4.1;;;1.7;;
52342;SDS011;38277;51.972;4.624;2022-12-07T04:21:26;5.1;;;1.3;;
52342;SDS011;38277;51.972;4.624;2022-12-07T04:25:53;3.7;;;1.3;;
52342;SDS011;38277;51.972;4.624;2022-12-07T04:30:11;4.3;;;1.7;;
52342;SDS011;38277;51.972;4.624;2022-12-07T04:39:43;5.6;;;1.7;;
52342;SDS011;38277;51.972;4.624;2022-12-07T04:48:11;2.9;;;1.1;;
52342;SDS011;38277;51.972;4.624;2022-12-07T04:52:55;4.7;;;1.8;;
52342;SDS011;38277;51.972;4.624;2022-12-07T04:57:18;4.8;;;1.8;;
52342;SDS011;38277;51.972;4.624;2022-12-07T05:06:22;3.5;;;1.0;;
52342;SDS011;38277;51.972;4.624;2022-12-07T05:24:38;3.7;;;1.1;;
52342;SDS011;38277;51.972;4.624;2022-12-07T05:28:52;3.5;;;1.4;;
52342;SDS011;38277;51.972;4.624;2022-12-07T05:33:20;6.5;;;1.8;;
52342;SDS011;38277;51.972;4.624;2022-12-07T05:37:46;4.7;;;1.6;;
52342;SDS011;38277;51.972;4.624;2022-12-07T05:42:16;7.9;;;1.7;;
52342;SDS011;38277;51.972;4.624;2022-12-07T05:47:01;3.5;;;1.3;;
52342;SDS011;38277;51.972;4.624;2022-12-07T05:51:49;3.4;;;1.4;;
52342;SDS011;38277;51.972;4.624;2022-12-07T05:56:01;4.8;;;1.5;;
52342;SDS011;38277;51.972;4.624;2022-12-07T06:00:31;2.7;;;1.5;;
52342;SDS011;38277;51.972;4.624;2022-12-07T06:13:51;2.9;;;1.7;;
52342;SDS011;38277;51.972;4.624;2022-12-07T06:18:31;3.7;;;1.5;;
52342;SDS011;38277;51.972;4.624;2022-12-07T06:27:18;3.8;;;1.4;;
52342;SDS011;38277;51.972;4.624;2022-12-07T06:31:50;2.9;;;1.5;;
52342;SDS011;38277;51.972;4.624;2022-12-07T06:36:20;2.4;;;1.4;;
52342;SDS011;38277;51.972;4.624;2022-12-07T06:54:28;4.4;;;1.9;;
52342;SDS011;38277;51.972;4.624;2022-12-07T06:59:11;4.1;;;1.5;;
52342;SDS011;38277;51.972;4.624;2022-12-07T07:03:32;7.6;;;2.3;;
52342;SDS011;38277;51.972;4.624;2022-12-07T07:08:09;6.6;;;1.9;;
52342;SDS011;38277;51.972;4.624;2022-12-07T07:12:18;10.6;;;2.5;;
52342;SDS011;38277;51.972;4.624;2022-12-07T07:21:14;4.7;;;1.7;;
52342;SDS011;38277;51.972;4.624;2022-12-07T07:39:18;4.3;;;1.8;;
52342;SDS011;38277;51.972;4.624;2022-12-07T07:43:48;4.2;;;2.0;;
52342;SDS011;38277;51.972;4.624;2022-12-07T07:48:37;5.8;;;1.8;;
52342;SDS011;38277;51.972;4.624;2022-12-07T07:53:00;4.9;;;2.2;;
52342;SDS011;38277;51.972;4.624;2022-12-07T07:57:33;5.5;;;2.2;;
52342;SDS011;38277;51.972;4.624;2022-12-07T08:02:03;7.2;;;2.9;;
52342;SDS011;38277;51.972;4.624;2022-12-07T08:10:58;7.0;;;3.1;;
52342;SDS011;38277;51.972;4.624;2022-12-07T08:15:16;13.1;;;3.8;;
52342;SDS011;38277;51.972;4.624;2022-12-07T08:20:09;6.9;;;3.0;;
52342;SDS011;38277;51.972;4.624;2022-12-07T08:24:16;7.0;;;3.1;;
52342;SDS011;38277;51.972;4.624;2022-12-07T08:28:57;5.6;;;2.4;;
52342;SDS011;38277;51.972;4.624;2022-12-07T08:33:38;5.4;;;2.5;;
52342;SDS011;38277;51.972;4.624;2022-12-07T08:38:10;6.3;;;2.9;;
52342;SDS011;38277;51.972;4.624;2022-12-07T08:42:25;7.8;;;3.0;;
52342;SDS011;38277;51.972;4.624;2022-12-07T08:46:56;9.1;;;3.1;;
52342;SDS011;38277;51.972;4.624;2022-12-07T08:55:47;6.8;;;2.8;;
52342;SDS011;38277;51.972;4.624;2022-12-07T09:00:44;6.0;;;2.3;;
52342;SDS011;38277;51.972;4.624;2022-12-07T09:04:48;8.7;;;2.5;;
52342;SDS011;38277;51.972;4.624;2022-12-07T09:09:22;4.2;;;2.1;;
52342;SDS011;38277;51.972;4.624;2022-12-07T09:14:05;8.0;;;2.8;;
52342;SDS011;38277;51.972;4.624;2022-12-07T09:18:27;6.4;;;2.4;;
52342;SDS011;38277;51.972;4.624;2022-12-07T09:22:59;7.7;;;2.3;;
52342;SDS011;38277;51.972;4.624;2022-12-07T09:27:14;7.0;;;2.2;;
52342;SDS011;38277;51.972;4.624;2022-12-07T09:32:04;3.9;;;1.7;;
52342;SDS011;38277;51.972;4.624;2022-12-07T09:36:44;4.3;;;1.8;;
52342;SDS011;38277;51.972;4.624;2022-12-07T09:40:54;5.3;;;1.7;;
52342;SDS011;38277;51.972;4.624;2022-12-07T09:45:15;7.4;;;3.4;;
52342;SDS011;38277;51.972;4.624;2022-12-07T09:50:04;3.8;;;1.4;;
52342;SDS011;38277;51.972;4.624;2022-12-07T09:54:43;5.0;;;1.3;;
52342;SDS011;38277;51.972;4.624;2022-12-07T09:58:59;5.3;;;1.7;;
52342;SDS011;38277;51.972;4.624;2022-12-07T10:03:51;2.8;;;1.4;;
52342;SDS011;38277;51.972;4.624;2022-12-07T10:07:43;4.6;;;1.6;;
52342;SDS011;38277;51.972;4.624;2022-12-07T10:17:31;9.9;;;3.5;;
52342;SDS011;38277;51.972;4.624;2022-12-07T10:21:39;6.9;;;2.2;;
52342;SDS011;38277;51.972;4.624;2022-12-07T10:25:47;7.2;;;2.0;;
52342;SDS011;38277;51.972;4.624;2022-12-07T10:30:28;6.3;;;1.7;;
52342;SDS011;38277;51.972;4.624;2022-12-07T10:35:24;4.3;;;1.7;;
52342;SDS011;38277;51.972;4.624;2022-12-07T10:39:20;7.9;;;2.7;;
52342;SDS011;38277;51.972;4.624;2022-12-07T10:49:03;4.4;;;1.5;;
52342;SDS011;38277;51.972;4.624;2022-12-07T10:53:40;6.6;;;1.8;;
52342;SDS011;38277;51.972;4.624;2022-12-07T11:03:27;6.1;;;2.4;;
52342;SDS011;38277;51.972;4.624;2022-12-07T11:07:55;8.2;;;3.0;;
52342;SDS011;38277;51.972;4.624;2022-12-07T11:12:20;6.3;;;2.5;;
52342;SDS011;38277;51.972;4.624;2022-12-07T11:20:08;10.1;;;2.7;;
52342;SDS011;38277;51.972;4.624;2022-12-07T11:25:24;6.9;;;1.6;;
52342;SDS011;38277;51.972;4.624;2022-12-07T11:34:13;14.8;;;2.1;;
52342;SDS011;38277;51.972;4.624;2022-12-07T11:37:48;7.3;;;1.7;;
52342;SDS011;38277;51.972;4.624;2022-12-07T11:42:51;4.7;;;1.5;;
52342;SDS011;38277;51.972;4.624;2022-12-07T11:47:16;4.5;;;1.9;;
52342;SDS011;38277;51.972;4.624;2022-12-07T11:56:01;2.9;;;1.3;;
52342;SDS011;38277;51.972;4.624;2022-12-07T12:00:40;4.3;;;1.3;;
52342;SDS011;38277;51.972;4.624;2022-12-07T12:05:16;4.7;;;1.1;;
52342;SDS011;38277;51.972;4.624;2022-12-07T12:14:46;3.2;;;1.1;;
52342;SDS011;38277;51.972;4.624;2022-12-07T12:20:29;5.4;;;1.1;;
52342;SDS011;38277;51.972;4.624;2022-12-07T12:23:05;10.3;;;2.4;;
52342;SDS011;38277;51.972;4.624;2022-12-07T12:27:29;6.7;;;1.8;;
52342;SDS011;38277;51.972;4.624;2022-12-07T12:32:06;3.8;;;1.3;;
52342;SDS011;38277;51.972;4.624;2022-12-07T12:36:48;3.2;;;0.9;;
52342;SDS011;38277;51.972;4.624;2022-12-07T12:45:22;2.3;;;0.9;;
52342;SDS011;38277;51.972;4.624;2022-12-07T12:49:54;4.2;;;1.2;;
52342;SDS011;38277;51.972;4.624;2022-12-07T12:54:30;2.3;;;1.1;;
52342;SDS011;38277;51.972;4.624;2022-12-07T13:03:26;2.9;;;1.5;;
52342;SDS011;38277;51.972;4.624;2022-12-07T13:08:12;7.4;;;2.1;;
52342;SDS011;38277;51.972;4.624;2022-12-07T13:12:28;3.3;;;1.0;;
52342;SDS011;38277;51.972;4.624;2022-12-07T13:16:55;6.3;;;1.5;;
52342;SDS011;38277;51.972;4.624;2022-12-07T13:26:04;2.5;;;1.1;;
52342;SDS011;38277;51.972;4.624;2022-12-07T13:30:59;3.2;;;1.0;;
52342;SDS011;38277;51.972;4.624;2022-12-07T13:43:49;3.0;;;1.2;;
52342;SDS011;38277;51.972;4.624;2022-12-07T13:48:31;1.6;;;1.0;;
52342;SDS011;38277;51.972;4.624;2022-12-07T13:52:59;2.3;;;1.0;;
52342;SDS011;38277;51.972;4.624;2022-12-07T13:57:39;3.8;;;0.9;;
52342;SDS011;38277;51.972;4.624;2022-12-07T14:01:41;4.0;;;1.0;;
52342;SDS011;38277;51.972;4.624;2022-12-07T14:06:47;2.1;;;0.9;;
52342;SDS011;38277;51.972;4.624;2022-12-07T14:10:57;2.2;;;0.9;;
52342;SDS011;38277;51.972;4.624;2022-12-07T14:15:53;2.5;;;1.1;;
52342;SDS011;38277;51.972;4.624;2022-12-07T14:20:29;5.1;;;1.2;;
52342;SDS011;38277;51.972;4.624;2022-12-07T14:24:42;4.1;;;1.0;;
52342;SDS011;38277;51.972;4.624;2022-12-07T14:38:02;4.4;;;1.3;;
52342;SDS011;38277;51.972;4.624;2022-12-07T14:42:39;3.7;;;1.3;;
52342;SDS011;38277;51.972;4.624;2022-12-07T14:47:07;3.5;;;1.4;;
52342;SDS011;38277;51.972;4.624;2022-12-07T14:51:31;4.7;;;1.4;;
52342;SDS011;38277;51.972;4.624;2022-12-07T14:56:08;2.6;;;0.9;;
52342;SDS011;38277;51.972;4.624;2022-12-07T15:00:43;2.8;;;1.5;;
52342;SDS011;38277;51.972;4.624;2022-12-07T15:04:44;3.4;;;1.5;;
52342;SDS011;38277;51.972;4.624;2022-12-07T15:13:47;3.2;;;1.6;;
52342;SDS011;38277;51.972;4.624;2022-12-07T15:18:34;6.5;;;2.0;;
52342;SDS011;38277;51.972;4.624;2022-12-07T15:22:43;11.3;;;3.1;;
52342;SDS011;38277;51.972;4.624;2022-12-07T15:27:39;4.1;;;1.5;;
52342;SDS011;38277;51.972;4.624;2022-12-07T15:32:14;4.7;;;1.3;;
52342;SDS011;38277;51.972;4.624;2022-12-07T15:36:36;5.3;;;1.5;;
52342;SDS011;38277;51.972;4.624;2022-12-07T15:40:46;6.2;;;1.8;;
52342;SDS011;38277;51.972;4.624;2022-12-07T15:45:25;5.1;;;1.5;;
52342;SDS011;38277;51.972;4.624;2022-12-07T15:49:49;6.0;;;1.7;;
52342;SDS011;38277;51.972;4.624;2022-12-07T15:54:47;8.5;;;2.6;;
52342;SDS011;38277;51.972;4.624;2022-12-07T15:59:04;7.4;;;2.3;;
52342;SDS011;38277;51.972;4.624;2022-12-07T16:03:22;7.8;;;2.6;;
52342;SDS011;38277;51.972;4.624;2022-12-07T16:08:09;7.2;;;2.1;;
52342;SDS011;38277;51.972;4.624;2022-12-07T16:12:29;7.9;;;2.8;;
52342;SDS011;38277;51.972;4.624;2022-12-07T16:17:02;8.4;;;2.4;;
52342;SDS011;38277;51.972;4.624;2022-12-07T16:21:29;8.0;;;2.3;;
52342;SDS011;38277;51.972;4.624;2022-12-07T16:25:49;5.5;;;1.8;;
52342;SDS011;38277;51.972;4.624;2022-12-07T16:30:40;8.2;;;2.3;;
52342;SDS011;38277;51.972;4.624;2022-12-07T16:34:47;7.1;;;2.4;;
52342;SDS011;38277;51.972;4.624;2022-12-07T16:39:40;8.6;;;2.8;;
52342;SDS011;38277;51.972;4.624;2022-12-07T16:48:37;8.9;;;3.7;;
52342;SDS011;38277;51.972;4.624;2022-12-07T16:52:49;9.7;;;3.0;;
52342;SDS011;38277;51.972;4.624;2022-12-07T16:57:37;7.8;;;2.8;;
52342;SDS011;38277;51.972;4.624;2022-12-07T17:06:28;8.1;;;3.1;;
52342;SDS011;38277;51.972;4.624;2022-12-07T17:10:42;7.3;;;3.0;;
52342;SDS011;38277;51.972;4.624;2022-12-07T17:15:24;7.6;;;2.8;;
52342;SDS011;38277;51.972;4.624;2022-12-07T17:20:10;10.1;;;3.6;;
52342;SDS011;38277;51.972;4.624;2022-12-07T17:24:28;8.2;;;3.3;;
52342;SDS011;38277;51.972;4.624;2022-12-07T17:29:07;11.1;;;3.5;;
52342;SDS011;38277;51.972;4.624;2022-12-07T17:33:38;9.2;;;4.1;;
52342;SDS011;38277;51.972;4.624;2022-12-07T17:37:56;8.8;;;3.7;;
52342;SDS011;38277;51.972;4.624;2022-12-07T17:42:39;6.7;;;3.1;;
52342;SDS011;38277;51.972;4.624;2022-12-07T17:47:00;7.0;;;3.2;;
52342;SDS011;38277;51.972;4.624;2022-12-07T17:51:51;5.7;;;2.5;;
52342;SDS011;38277;51.972;4.624;2022-12-07T17:55:49;6.1;;;2.5;;
52342;SDS011;38277;51.972;4.624;2022-12-07T18:00:41;4.7;;;2.4;;
52342;SDS011;38277;51.972;4.624;2022-12-07T18:04:44;4.3;;;2.3;;
52342;SDS011;38277;51.972;4.624;2022-12-07T18:09:34;7.1;;;2.8;;
52342;SDS011;38277;51.972;4.624;2022-12-07T18:14:02;8.5;;;3.0;;
52342;SDS011;38277;51.972;4.624;2022-12-07T18:18:43;7.9;;;3.5;;
52342;SDS011;38277;51.972;4.624;2022-12-07T18:22:57;6.2;;;3.3;;
52342;SDS011;38277;51.972;4.624;2022-12-07T18:27:45;7.6;;;3.3;;
52342;SDS011;38277;51.972;4.624;2022-12-07T18:31:41;7.3;;;3.2;;
52342;SDS011;38277;51.972;4.624;2022-12-07T18:41:02;6.8;;;3.1;;
52342;SDS011;38277;51.972;4.624;2022-12-07T18:45:26;8.2;;;3.0;;
52342;SDS011;38277;51.972;4.624;2022-12-07T18:50:08;9.5;;;3.7;;
52342;SDS011;38277;51.972;4.624;2022-12-07T18:54:30;6.8;;;2.1;;
52342;SDS011;38277;51.972;4.624;2022-12-07T18:59:13;6.7;;;1.9;;
52342;SDS011;38277;51.972;4.624;2022-12-07T19:03:35;7.0;;;1.6;;
52342;SDS011;38277;51.972;4.624;2022-12-07T19:08:10;2.5;;;1.1;;
52342;SDS011;38277;51.972;4.624;2022-12-07T19:12:42;2.6;;;1.0;;
52342;SDS011;38277;51.972;4.624;2022-12-07T19:21:35;3.5;;;1.5;;
52342;SDS011;38277;51.972;4.624;2022-12-07T19:25:48;2.9;;;1.6;;
52342;SDS011;38277;51.972;4.624;2022-12-07T19:39:43;5.5;;;2.2;;
52342;SDS011;38277;51.972;4.624;2022-12-07T19:44:25;6.8;;;2.5;;
52342;SDS011;38277;51.972;4.624;2022-12-07T19:48:38;7.2;;;3.5;;
52342;SDS011;38277;51.972;4.624;2022-12-07T19:52:58;8.4;;;3.8;;
52342;SDS011;38277;51.972;4.624;2022-12-07T19:57:35;5.8;;;2.2;;
52342;SDS011;38277;51.972;4.624;2022-12-07T20:01:49;5.0;;;2.2;;
52342;SDS011;38277;51.972;4.624;2022-12-07T20:06:50;5.1;;;1.8;;
52342;SDS011;38277;51.972;4.624;2022-12-07T20:11:03;2.6;;;1.5;;
52342;SDS011;38277;51.972;4.624;2022-12-07T20:15:38;4.7;;;1.8;;
52342;SDS011;38277;51.972;4.624;2022-12-07T20:19:54;4.7;;;2.4;;
52342;SDS011;38277;51.972;4.624;2022-12-07T20:56:06;4.9;;;2.3;;
52342;SDS011;38277;51.972;4.624;2022-12-07T21:00:46;6.8;;;2.6;;
52342;SDS011;38277;51.972;4.624;2022-12-07T21:04:48;7.2;;;3.0;;
52342;SDS011;38277;51.972;4.624;2022-12-07T21:09:34;7.4;;;2.9;;
52342;SDS011;38277;51.972;4.624;2022-12-07T21:14:01;7.3;;;3.6;;
52342;SDS011;38277;51.972;4.624;2022-12-07T21:18:32;10.6;;;5.2;;
52342;SDS011;38277;51.972;4.624;2022-12-07T21:22:58;11.3;;;4.8;;
52342;SDS011;38277;51.972;4.624;2022-12-07T21:27:39;6.9;;;2.9;;
52342;SDS011;38277;51.972;4.624;2022-12-07T21:31:50;8.6;;;2.7;;
52342;SDS011;38277;51.972;4.624;2022-12-07T21:41:13;5.8;;;2.7;;
52342;SDS011;38277;51.972;4.624;2022-12-07T21:45:39;4.2;;;2.3;;
52342;SDS011;38277;51.972;4.624;2022-12-07T21:50:13;3.5;;;2.0;;
52342;SDS011;38277;51.972;4.624;2022-12-07T21:55:24;4.1;;;1.8;;
52342;SDS011;38277;51.972;4.624;2022-12-07T21:59:01;3.5;;;1.6;;
52342;SDS011;38277;51.972;4.624;2022-12-07T22:03:27;3.5;;;1.5;;
52342;SDS011;38277;51.972;4.624;2022-12-07T22:07:41;3.5;;;1.3;;
52342;SDS011;38277;51.972;4.624;2022-12-07T22:12:45;2.8;;;1.2;;
52342;SDS011;38277;51.972;4.624;2022-12-07T22:26:03;3.1;;;1.2;;
52342;SDS011;38277;51.972;4.624;2022-12-07T22:30:26;5.0;;;1.5;;
52342;SDS011;38277;51.972;4.624;2022-12-07T22:35:15;2.0;;;1.3;;
52342;SDS011;38277;51.972;4.624;2022-12-07T22:39:17;3.3;;;1.3;;
52342;SDS011;38277;51.972;4.624;2022-12-07T22:48:37;5.2;;;1.7;;
52342;SDS011;38277;51.972;4.624;2022-12-07T22:52:58;2.8;;;1.4;;
52342;SDS011;38277;51.972;4.624;2022-12-07T22:57:25;3.9;;;1.4;;
52342;SDS011;38277;51.972;4.624;2022-12-07T23:11:06;4.9;;;1.1;;
52342;SDS011;38277;51.972;4.624;2022-12-07T23:15:26;4.6;;;1.7;;
52342;SDS011;38277;51.972;4.624;2022-12-07T23:19:59;2.5;;;1.2;;
52342;SDS011;38277;51.972;4.624;2022-12-07T23:24:53;1.6;;;0.8;;
52342;SDS011;38277;51.972;4.624;2022-12-07T23:28:54;1.6;;;0.9;;
52342;SDS011;38277;51.972;4.624;2022-12-07T23:33:40;1.4;;;1.0;;
52342;SDS011;38277;51.972;4.624;2022-12-07T23:37:43;4.4;;;0.9;;
52342;SDS011;38277;51.972;4.624;2022-12-07T23:42:46;1.4;;;0.9;;
52342;SDS011;38277;51.972;4.624;2022-12-07T23:46:53;2.1;;;0.8;;
